sensor_id;sensor_type;location;lat;lon;timestamp;P1;durP1;ratioP1;P2;durP2;ratioP2
75423;SDS011;64005;55.160;36.002;2023-04-01T00:02:03;5.25;;;2.25;;
75423;SDS011;64005;55.160;36.002;2023-04-01T00:04:30;5.18;;;1.75;;
75423;SDS011;64005;55.160;36.002;2023-04-01T00:06:57;4.82;;;1.73;;
75423;SDS011;64005;55.160;36.002;2023-04-01T00:09:25;4.40;;;1.40;;
75423;SDS011;64005;55.160;36.002;2023-04-01T00:11:54;7.45;;;2.03;;
75423;SDS011;64005;55.160;36.002;2023-04-01T00:14:22;5.93;;;1.90;;
75423;SDS011;64005;55.160;36.002;2023-04-01T00:16:49;5.60;;;2.15;;
75423;SDS011;64005;55.160;36.002;2023-04-01T00:19:17;6.32;;;1.85;;
75423;SDS011;64005;55.160;36.002;2023-04-01T00:21:45;4.68;;;1.80;;
75423;SDS011;64005;55.160;36.002;2023-04-01T00:24:13;5.03;;;1.85;;
75423;SDS011;64005;55.160;36.002;2023-04-01T00:26:41;5.93;;;2.10;;
75423;SDS011;64005;55.160;36.002;2023-04-01T00:29:11;6.50;;;2.17;;
75423;SDS011;64005;55.160;36.002;2023-04-01T00:31:38;6.03;;;2.13;;
75423;SDS011;64005;55.160;36.002;2023-04-01T00:34:06;5.10;;;2.00;;
75423;SDS011;64005;55.160;36.002;2023-04-01T00:36:33;5.82;;;2.08;;
75423;SDS011;64005;55.160;36.002;2023-04-01T00:39:01;5.10;;;1.63;;
75423;SDS011;64005;55.160;36.002;2023-04-01T00:41:28;5.13;;;1.95;;
75423;SDS011;64005;55.160;36.002;2023-04-01T00:46:46;5.15;;;1.88;;
75423;SDS011;64005;55.160;36.002;2023-04-01T00:49:14;8.32;;;2.05;;
75423;SDS011;64005;55.160;36.002;2023-04-01T00:51:44;5.07;;;1.83;;
75423;SDS011;64005;55.160;36.002;2023-04-01T00:54:15;5.65;;;1.80;;
75423;SDS011;64005;55.160;36.002;2023-04-01T00:56:45;5.18;;;1.60;;
75423;SDS011;64005;55.160;36.002;2023-04-01T00:59:16;6.00;;;2.17;;
75423;SDS011;64005;55.160;36.002;2023-04-01T01:01:49;8.30;;;2.05;;
75423;SDS011;64005;55.160;36.002;2023-04-01T01:04:24;6.57;;;2.03;;
75423;SDS011;64005;55.160;36.002;2023-04-01T01:06:56;6.63;;;2.13;;
75423;SDS011;64005;55.160;36.002;2023-04-01T01:09:33;7.95;;;2.15;;
75423;SDS011;64005;55.160;36.002;2023-04-01T01:12:11;8.18;;;2.15;;
75423;SDS011;64005;55.160;36.002;2023-04-01T01:14:48;5.45;;;2.22;;
75423;SDS011;64005;55.160;36.002;2023-04-01T01:17:25;4.63;;;1.75;;
75423;SDS011;64005;55.160;36.002;2023-04-01T01:26:09;7.18;;;2.25;;
75423;SDS011;64005;55.160;36.002;2023-04-01T01:29:07;4.80;;;1.65;;
75423;SDS011;64005;55.160;36.002;2023-04-01T01:31:47;8.50;;;1.83;;
75423;SDS011;64005;55.160;36.002;2023-04-01T01:34:21;4.35;;;1.90;;
75423;SDS011;64005;55.160;36.002;2023-04-01T01:36:59;4.72;;;1.83;;
75423;SDS011;64005;55.160;36.002;2023-04-01T01:39:31;5.35;;;1.65;;
75423;SDS011;64005;55.160;36.002;2023-04-01T01:42:02;4.88;;;1.35;;
75423;SDS011;64005;55.160;36.002;2023-04-01T01:44:32;5.40;;;2.05;;
75423;SDS011;64005;55.160;36.002;2023-04-01T01:47:02;5.15;;;1.90;;
75423;SDS011;64005;55.160;36.002;2023-04-01T01:49:29;6.43;;;1.88;;
75423;SDS011;64005;55.160;36.002;2023-04-01T01:52:02;7.00;;;1.90;;
75423;SDS011;64005;55.160;36.002;2023-04-01T01:54:30;8.98;;;2.00;;
75423;SDS011;64005;55.160;36.002;2023-04-01T01:56:59;4.82;;;1.73;;
75423;SDS011;64005;55.160;36.002;2023-04-01T01:59:31;5.43;;;1.98;;
75423;SDS011;64005;55.160;36.002;2023-04-01T02:02:03;5.72;;;1.83;;
75423;SDS011;64005;55.160;36.002;2023-04-01T02:04:33;5.65;;;1.90;;
75423;SDS011;64005;55.160;36.002;2023-04-01T02:07:07;6.93;;;2.08;;
75423;SDS011;64005;55.160;36.002;2023-04-01T02:09:39;5.95;;;2.60;;
75423;SDS011;64005;55.160;36.002;2023-04-01T02:12:08;6.65;;;2.00;;
75423;SDS011;64005;55.160;36.002;2023-04-01T02:14:39;4.93;;;1.88;;
75423;SDS011;64005;55.160;36.002;2023-04-01T02:17:13;6.72;;;2.20;;
75423;SDS011;64005;55.160;36.002;2023-04-01T02:19:44;8.93;;;2.28;;
75423;SDS011;64005;55.160;36.002;2023-04-01T02:22:18;7.75;;;2.00;;
75423;SDS011;64005;55.160;36.002;2023-04-01T02:24:49;5.97;;;2.08;;
75423;SDS011;64005;55.160;36.002;2023-04-01T02:27:19;5.75;;;1.98;;
75423;SDS011;64005;55.160;36.002;2023-04-01T02:29:47;5.72;;;2.20;;
75423;SDS011;64005;55.160;36.002;2023-04-01T02:32:14;6.57;;;2.25;;
75423;SDS011;64005;55.160;36.002;2023-04-01T02:34:43;7.15;;;2.38;;
75423;SDS011;64005;55.160;36.002;2023-04-01T02:37:11;11.25;;;2.35;;
75423;SDS011;64005;55.160;36.002;2023-04-01T02:39:41;9.55;;;2.97;;
75423;SDS011;64005;55.160;36.002;2023-04-01T02:42:09;11.73;;;3.13;;
75423;SDS011;64005;55.160;36.002;2023-04-01T02:44:37;12.02;;;4.30;;
75423;SDS011;64005;55.160;36.002;2023-04-01T02:47:04;14.27;;;3.97;;
75423;SDS011;64005;55.160;36.002;2023-04-01T02:49:32;13.07;;;3.45;;
75423;SDS011;64005;55.160;36.002;2023-04-01T02:51:59;12.55;;;4.30;;
75423;SDS011;64005;55.160;36.002;2023-04-01T02:54:26;11.70;;;3.95;;
75423;SDS011;64005;55.160;36.002;2023-04-01T02:56:55;19.85;;;6.35;;
75423;SDS011;64005;55.160;36.002;2023-04-01T02:59:23;47.45;;;12.05;;
75423;SDS011;64005;55.160;36.002;2023-04-01T03:01:50;52.08;;;12.50;;
75423;SDS011;64005;55.160;36.002;2023-04-01T03:04:17;55.13;;;16.10;;
75423;SDS011;64005;55.160;36.002;2023-04-01T03:06:45;38.17;;;10.38;;
75423;SDS011;64005;55.160;36.002;2023-04-01T03:09:12;29.90;;;8.18;;
75423;SDS011;64005;55.160;36.002;2023-04-01T03:11:40;28.80;;;6.82;;
75423;SDS011;64005;55.160;36.002;2023-04-01T03:14:09;24.17;;;5.80;;
75423;SDS011;64005;55.160;36.002;2023-04-01T03:16:37;15.32;;;3.45;;
75423;SDS011;64005;55.160;36.002;2023-04-01T03:19:04;8.80;;;2.55;;
75423;SDS011;64005;55.160;36.002;2023-04-01T03:21:31;5.30;;;2.45;;
75423;SDS011;64005;55.160;36.002;2023-04-01T03:23:59;7.40;;;1.73;;
75423;SDS011;64005;55.160;36.002;2023-04-01T03:26:26;6.43;;;1.60;;
75423;SDS011;64005;55.160;36.002;2023-04-01T03:28:54;5.57;;;1.63;;
75423;SDS011;64005;55.160;36.002;2023-04-01T03:31:23;5.55;;;1.90;;
75423;SDS011;64005;55.160;36.002;2023-04-01T03:33:51;5.10;;;1.50;;
75423;SDS011;64005;55.160;36.002;2023-04-01T03:36:18;8.52;;;2.05;;
75423;SDS011;64005;55.160;36.002;2023-04-01T03:38:46;6.57;;;1.67;;
75423;SDS011;64005;55.160;36.002;2023-04-01T03:41:14;6.07;;;2.35;;
75423;SDS011;64005;55.160;36.002;2023-04-01T03:43:43;6.93;;;1.83;;
75423;SDS011;64005;55.160;36.002;2023-04-01T03:46:11;7.10;;;2.17;;
75423;SDS011;64005;55.160;36.002;2023-04-01T03:48:45;8.68;;;2.05;;
75423;SDS011;64005;55.160;36.002;2023-04-01T03:51:13;6.82;;;2.08;;
75423;SDS011;64005;55.160;36.002;2023-04-01T03:53:40;7.25;;;2.47;;
75423;SDS011;64005;55.160;36.002;2023-04-01T03:56:08;6.57;;;1.77;;
75423;SDS011;64005;55.160;36.002;2023-04-01T03:58:36;6.03;;;1.83;;
75423;SDS011;64005;55.160;36.002;2023-04-01T04:01:12;8.90;;;2.78;;
75423;SDS011;64005;55.160;36.002;2023-04-01T04:03:41;5.88;;;1.65;;
75423;SDS011;64005;55.160;36.002;2023-04-01T04:06:12;5.53;;;1.73;;
75423;SDS011;64005;55.160;36.002;2023-04-01T04:08:40;4.85;;;1.70;;
75423;SDS011;64005;55.160;36.002;2023-04-01T04:11:07;5.65;;;1.85;;
75423;SDS011;64005;55.160;36.002;2023-04-01T04:13:35;4.97;;;1.63;;
75423;SDS011;64005;55.160;36.002;2023-04-01T04:16:03;3.53;;;1.48;;
75423;SDS011;64005;55.160;36.002;2023-04-01T04:18:32;7.53;;;2.38;;
75423;SDS011;64005;55.160;36.002;2023-04-01T04:20:59;5.18;;;1.95;;
75423;SDS011;64005;55.160;36.002;2023-04-01T04:23:28;7.80;;;2.38;;
75423;SDS011;64005;55.160;36.002;2023-04-01T04:25:59;6.82;;;2.33;;
75423;SDS011;64005;55.160;36.002;2023-04-01T04:28:28;7.43;;;2.65;;
75423;SDS011;64005;55.160;36.002;2023-04-01T04:30:56;7.38;;;3.00;;
75423;SDS011;64005;55.160;36.002;2023-04-01T04:33:24;11.07;;;3.35;;
75423;SDS011;64005;55.160;36.002;2023-04-01T04:35:54;6.00;;;2.08;;
75423;SDS011;64005;55.160;36.002;2023-04-01T04:38:23;9.05;;;2.38;;
75423;SDS011;64005;55.160;36.002;2023-04-01T04:40:52;8.95;;;2.58;;
75423;SDS011;64005;55.160;36.002;2023-04-01T04:43:20;6.85;;;2.70;;
75423;SDS011;64005;55.160;36.002;2023-04-01T04:45:48;9.20;;;2.85;;
75423;SDS011;64005;55.160;36.002;2023-04-01T04:48:16;9.88;;;3.10;;
75423;SDS011;64005;55.160;36.002;2023-04-01T04:50:46;8.80;;;2.97;;
75423;SDS011;64005;55.160;36.002;2023-04-01T04:53:18;9.57;;;2.95;;
75423;SDS011;64005;55.160;36.002;2023-04-01T04:55:46;10.57;;;3.38;;
75423;SDS011;64005;55.160;36.002;2023-04-01T04:58:17;8.23;;;3.15;;
75423;SDS011;64005;55.160;36.002;2023-04-01T05:00:45;7.43;;;2.60;;
75423;SDS011;64005;55.160;36.002;2023-04-01T05:03:13;8.20;;;2.80;;
75423;SDS011;64005;55.160;36.002;2023-04-01T05:05:47;7.80;;;2.85;;
75423;SDS011;64005;55.160;36.002;2023-04-01T05:08:16;7.28;;;2.95;;
75423;SDS011;64005;55.160;36.002;2023-04-01T05:10:44;10.70;;;3.75;;
75423;SDS011;64005;55.160;36.002;2023-04-01T05:13:11;8.18;;;3.30;;
75423;SDS011;64005;55.160;36.002;2023-04-01T05:15:40;11.18;;;4.00;;
75423;SDS011;64005;55.160;36.002;2023-04-01T05:18:08;6.75;;;2.78;;
75423;SDS011;64005;55.160;36.002;2023-04-01T05:20:35;9.57;;;3.10;;
75423;SDS011;64005;55.160;36.002;2023-04-01T05:23:03;8.60;;;2.80;;
75423;SDS011;64005;55.160;36.002;2023-04-01T05:25:30;5.63;;;2.67;;
75423;SDS011;64005;55.160;36.002;2023-04-01T05:27:57;8.43;;;2.95;;
75423;SDS011;64005;55.160;36.002;2023-04-01T05:30:25;6.80;;;2.38;;
75423;SDS011;64005;55.160;36.002;2023-04-01T05:32:54;7.18;;;2.90;;
75423;SDS011;64005;55.160;36.002;2023-04-01T05:35:21;9.57;;;2.50;;
75423;SDS011;64005;55.160;36.002;2023-04-01T05:37:49;6.45;;;2.15;;
75423;SDS011;64005;55.160;36.002;2023-04-01T05:40:17;5.57;;;2.38;;
75423;SDS011;64005;55.160;36.002;2023-04-01T05:42:44;4.60;;;2.08;;
75423;SDS011;64005;55.160;36.002;2023-04-01T05:45:12;8.50;;;2.53;;
75423;SDS011;64005;55.160;36.002;2023-04-01T05:47:40;5.35;;;2.30;;
75423;SDS011;64005;55.160;36.002;2023-04-01T05:50:10;6.45;;;2.45;;
75423;SDS011;64005;55.160;36.002;2023-04-01T05:52:38;4.40;;;1.70;;
75423;SDS011;64005;55.160;36.002;2023-04-01T05:55:06;5.93;;;2.10;;
75423;SDS011;64005;55.160;36.002;2023-04-01T05:57:34;4.20;;;1.88;;
75423;SDS011;64005;55.160;36.002;2023-04-01T06:00:02;7.15;;;2.35;;
75423;SDS011;64005;55.160;36.002;2023-04-01T06:02:31;6.70;;;1.95;;
75423;SDS011;64005;55.160;36.002;2023-04-01T06:05:01;5.85;;;2.10;;
75423;SDS011;64005;55.160;36.002;2023-04-01T06:07:39;5.78;;;1.58;;
75423;SDS011;64005;55.160;36.002;2023-04-01T06:10:10;8.15;;;2.10;;
75423;SDS011;64005;55.160;36.002;2023-04-01T06:12:52;6.40;;;2.00;;
75423;SDS011;64005;55.160;36.002;2023-04-01T06:15:30;4.63;;;1.65;;
75423;SDS011;64005;55.160;36.002;2023-04-01T06:18:10;7.80;;;1.75;;
75423;SDS011;64005;55.160;36.002;2023-04-01T06:23:42;4.50;;;1.40;;
75423;SDS011;64005;55.160;36.002;2023-04-01T06:26:24;4.18;;;1.48;;
75423;SDS011;64005;55.160;36.002;2023-04-01T06:32:20;4.18;;;1.33;;
75423;SDS011;64005;55.160;36.002;2023-04-01T06:35:08;4.82;;;1.48;;
75423;SDS011;64005;55.160;36.002;2023-04-01T06:40:55;5.20;;;1.45;;
75423;SDS011;64005;55.160;36.002;2023-04-01T06:54:55;3.40;;;1.23;;
75423;SDS011;64005;55.160;36.002;2023-04-01T06:57:30;5.40;;;1.38;;
75423;SDS011;64005;55.160;36.002;2023-04-01T07:33:29;4.43;;;1.30;;
75423;SDS011;64005;55.160;36.002;2023-04-01T07:50:29;4.03;;;1.40;;
75423;SDS011;64005;55.160;36.002;2023-04-01T08:12:31;4.28;;;1.30;;
75423;SDS011;64005;55.160;36.002;2023-04-01T08:15:16;3.28;;;1.00;;
75423;SDS011;64005;55.160;36.002;2023-04-01T08:17:52;4.28;;;1.10;;
75423;SDS011;64005;55.160;36.002;2023-04-01T08:38:46;5.03;;;1.35;;
75423;SDS011;64005;55.160;36.002;2023-04-01T08:55:39;4.55;;;1.50;;
75423;SDS011;64005;55.160;36.002;2023-04-01T08:58:32;5.32;;;1.92;;
75423;SDS011;64005;55.160;36.002;2023-04-01T09:01:24;6.38;;;1.92;;
75423;SDS011;64005;55.160;36.002;2023-04-01T09:04:14;4.13;;;1.80;;
75423;SDS011;64005;55.160;36.002;2023-04-01T09:06:55;4.75;;;1.98;;
75423;SDS011;64005;55.160;36.002;2023-04-01T09:09:48;6.95;;;1.92;;
75423;SDS011;64005;55.160;36.002;2023-04-01T09:12:40;5.38;;;1.92;;
75423;SDS011;64005;55.160;36.002;2023-04-01T09:15:28;3.92;;;1.55;;
75423;SDS011;64005;55.160;36.002;2023-04-01T09:18:42;5.72;;;1.98;;
75423;SDS011;64005;55.160;36.002;2023-04-01T09:24:29;5.70;;;1.88;;
75423;SDS011;64005;55.160;36.002;2023-04-01T09:27:10;5.68;;;2.05;;
75423;SDS011;64005;55.160;36.002;2023-04-01T09:29:58;6.60;;;1.90;;
75423;SDS011;64005;55.160;36.002;2023-04-01T09:35:47;5.05;;;2.10;;
75423;SDS011;64005;55.160;36.002;2023-04-01T09:38:21;5.55;;;2.17;;
75423;SDS011;64005;55.160;36.002;2023-04-01T09:40:56;7.85;;;2.38;;
75423;SDS011;64005;55.160;36.002;2023-04-01T09:43:28;4.72;;;1.83;;
75423;SDS011;64005;55.160;36.002;2023-04-01T09:46:16;5.90;;;2.30;;
75423;SDS011;64005;55.160;36.002;2023-04-01T09:48:55;5.40;;;2.03;;
75423;SDS011;64005;55.160;36.002;2023-04-01T09:51:43;6.05;;;2.33;;
75423;SDS011;64005;55.160;36.002;2023-04-01T09:54:24;5.57;;;2.33;;
75423;SDS011;64005;55.160;36.002;2023-04-01T10:00:16;5.57;;;2.25;;
75423;SDS011;64005;55.160;36.002;2023-04-01T10:06:33;4.22;;;1.65;;
75423;SDS011;64005;55.160;36.002;2023-04-01T10:12:36;6.63;;;2.33;;
75423;SDS011;64005;55.160;36.002;2023-04-01T10:21:21;5.47;;;1.73;;
75423;SDS011;64005;55.160;36.002;2023-04-01T10:27:25;7.70;;;3.00;;
75423;SDS011;64005;55.160;36.002;2023-04-01T10:30:28;5.68;;;2.10;;
75423;SDS011;64005;55.160;36.002;2023-04-01T10:33:35;8.00;;;2.97;;
75423;SDS011;64005;55.160;36.002;2023-04-01T10:39:20;7.43;;;3.22;;
75423;SDS011;64005;55.160;36.002;2023-04-01T10:42:17;8.77;;;3.60;;
75423;SDS011;64005;55.160;36.002;2023-04-01T10:51:14;7.07;;;3.03;;
75423;SDS011;64005;55.160;36.002;2023-04-01T10:53:49;10.00;;;3.08;;
75423;SDS011;64005;55.160;36.002;2023-04-01T10:59:32;7.32;;;3.00;;
75423;SDS011;64005;55.160;36.002;2023-04-01T11:05:43;9.30;;;3.17;;
75423;SDS011;64005;55.160;36.002;2023-04-01T11:09:02;8.70;;;2.95;;
75423;SDS011;64005;55.160;36.002;2023-04-01T11:18:50;6.85;;;2.78;;
75423;SDS011;64005;55.160;36.002;2023-04-01T11:34:44;8.02;;;3.13;;
75423;SDS011;64005;55.160;36.002;2023-04-01T11:48:09;8.77;;;3.22;;
75423;SDS011;64005;55.160;36.002;2023-04-01T12:01:50;7.00;;;3.53;;
75423;SDS011;64005;55.160;36.002;2023-04-01T12:07:48;6.32;;;2.53;;
75423;SDS011;64005;55.160;36.002;2023-04-01T12:13:05;7.50;;;3.33;;
75423;SDS011;64005;55.160;36.002;2023-04-01T12:15:45;5.65;;;2.80;;
75423;SDS011;64005;55.160;36.002;2023-04-01T12:18:24;6.30;;;3.13;;
75423;SDS011;64005;55.160;36.002;2023-04-01T12:21:05;9.27;;;2.83;;
75423;SDS011;64005;55.160;36.002;2023-04-01T12:23:49;6.90;;;3.17;;
75423;SDS011;64005;55.160;36.002;2023-04-01T12:26:59;6.63;;;3.17;;
75423;SDS011;64005;55.160;36.002;2023-04-01T12:29:49;6.13;;;2.67;;
75423;SDS011;64005;55.160;36.002;2023-04-01T12:32:40;7.07;;;2.90;;
75423;SDS011;64005;55.160;36.002;2023-04-01T12:35:17;8.32;;;3.00;;
75423;SDS011;64005;55.160;36.002;2023-04-01T12:37:52;8.00;;;2.55;;
75423;SDS011;64005;55.160;36.002;2023-04-01T12:40:47;7.00;;;3.25;;
75423;SDS011;64005;55.160;36.002;2023-04-01T12:46:38;6.78;;;2.85;;
75423;SDS011;64005;55.160;36.002;2023-04-01T12:49:27;7.95;;;2.88;;
75423;SDS011;64005;55.160;36.002;2023-04-01T12:52:14;7.43;;;3.08;;
75423;SDS011;64005;55.160;36.002;2023-04-01T13:04:08;7.28;;;3.08;;
75423;SDS011;64005;55.160;36.002;2023-04-01T13:10:01;7.40;;;2.90;;
75423;SDS011;64005;55.160;36.002;2023-04-01T13:12:39;6.25;;;2.97;;
75423;SDS011;64005;55.160;36.002;2023-04-01T13:15:20;8.15;;;3.35;;
75423;SDS011;64005;55.160;36.002;2023-04-01T13:17:53;8.82;;;3.08;;
75423;SDS011;64005;55.160;36.002;2023-04-01T13:20:35;8.50;;;3.60;;
75423;SDS011;64005;55.160;36.002;2023-04-01T13:23:13;8.18;;;3.15;;
75423;SDS011;64005;55.160;36.002;2023-04-01T13:25:53;9.32;;;3.63;;
75423;SDS011;64005;55.160;36.002;2023-04-01T13:28:32;7.68;;;3.50;;
75423;SDS011;64005;55.160;36.002;2023-04-01T13:31:08;8.15;;;3.38;;
75423;SDS011;64005;55.160;36.002;2023-04-01T13:33:47;9.95;;;3.08;;
75423;SDS011;64005;55.160;36.002;2023-04-01T13:36:23;9.23;;;3.13;;
75423;SDS011;64005;55.160;36.002;2023-04-01T13:42:18;8.80;;;3.38;;
75423;SDS011;64005;55.160;36.002;2023-04-01T13:44:53;8.65;;;3.15;;
75423;SDS011;64005;55.160;36.002;2023-04-01T13:47:44;8.13;;;3.47;;
75423;SDS011;64005;55.160;36.002;2023-04-01T13:50:27;9.93;;;3.50;;
75423;SDS011;64005;55.160;36.002;2023-04-01T13:53:21;7.93;;;4.03;;
75423;SDS011;64005;55.160;36.002;2023-04-01T13:56:14;9.07;;;3.60;;
75423;SDS011;64005;55.160;36.002;2023-04-01T13:58:54;8.32;;;4.00;;
75423;SDS011;64005;55.160;36.002;2023-04-01T14:01:41;8.82;;;3.90;;
75423;SDS011;64005;55.160;36.002;2023-04-01T14:07:08;10.45;;;4.13;;
75423;SDS011;64005;55.160;36.002;2023-04-01T14:09:52;10.57;;;4.30;;
75423;SDS011;64005;55.160;36.002;2023-04-01T14:12:35;10.57;;;4.03;;
75423;SDS011;64005;55.160;36.002;2023-04-01T14:18:09;12.18;;;3.90;;
75423;SDS011;64005;55.160;36.002;2023-04-01T14:20:53;10.00;;;4.40;;
75423;SDS011;64005;55.160;36.002;2023-04-01T14:23:36;10.70;;;4.22;;
75423;SDS011;64005;55.160;36.002;2023-04-01T14:26:26;10.40;;;4.70;;
75423;SDS011;64005;55.160;36.002;2023-04-01T14:34:29;9.02;;;4.38;;
75423;SDS011;64005;55.160;36.002;2023-04-01T14:37:14;9.48;;;4.38;;
75423;SDS011;64005;55.160;36.002;2023-04-01T14:45:58;8.93;;;4.25;;
75423;SDS011;64005;55.160;36.002;2023-04-01T14:48:49;10.40;;;4.82;;
75423;SDS011;64005;55.160;36.002;2023-04-01T14:51:21;11.73;;;4.50;;
75423;SDS011;64005;55.160;36.002;2023-04-01T14:54:00;11.60;;;4.57;;
75423;SDS011;64005;55.160;36.002;2023-04-01T14:56:36;13.38;;;5.03;;
75423;SDS011;64005;55.160;36.002;2023-04-01T14:59:07;14.65;;;4.97;;
75423;SDS011;64005;55.160;36.002;2023-04-01T15:01:39;13.10;;;5.38;;
75423;SDS011;64005;55.160;36.002;2023-04-01T15:04:34;12.15;;;5.25;;
75423;SDS011;64005;55.160;36.002;2023-04-01T15:07:49;13.43;;;5.57;;
75423;SDS011;64005;55.160;36.002;2023-04-01T15:10:38;14.70;;;5.72;;
75423;SDS011;64005;55.160;36.002;2023-04-01T15:13:37;13.50;;;5.90;;
75423;SDS011;64005;55.160;36.002;2023-04-01T15:16:27;11.82;;;5.25;;
75423;SDS011;64005;55.160;36.002;2023-04-01T15:19:05;11.10;;;4.90;;
75423;SDS011;64005;55.160;36.002;2023-04-01T15:21:49;16.80;;;6.03;;
75423;SDS011;64005;55.160;36.002;2023-04-01T15:24:26;12.05;;;5.93;;
75423;SDS011;64005;55.160;36.002;2023-04-01T15:27:12;12.70;;;5.63;;
75423;SDS011;64005;55.160;36.002;2023-04-01T15:32:50;13.23;;;5.40;;
75423;SDS011;64005;55.160;36.002;2023-04-01T15:35:32;14.52;;;5.82;;
75423;SDS011;64005;55.160;36.002;2023-04-01T15:38:13;12.15;;;5.35;;
75423;SDS011;64005;55.160;36.002;2023-04-01T15:40:51;12.73;;;5.70;;
75423;SDS011;64005;55.160;36.002;2023-04-01T15:43:30;14.98;;;6.28;;
75423;SDS011;64005;55.160;36.002;2023-04-01T15:46:17;15.07;;;6.30;;
75423;SDS011;64005;55.160;36.002;2023-04-01T15:49:11;15.52;;;6.38;;
75423;SDS011;64005;55.160;36.002;2023-04-01T15:54:52;14.65;;;6.93;;
75423;SDS011;64005;55.160;36.002;2023-04-01T15:57:46;15.20;;;6.55;;
75423;SDS011;64005;55.160;36.002;2023-04-01T16:00:29;15.55;;;6.72;;
75423;SDS011;64005;55.160;36.002;2023-04-01T16:03:09;16.15;;;6.78;;
75423;SDS011;64005;55.160;36.002;2023-04-01T16:06:06;17.92;;;6.45;;
75423;SDS011;64005;55.160;36.002;2023-04-01T16:08:53;17.48;;;7.15;;
75423;SDS011;64005;55.160;36.002;2023-04-01T16:11:30;17.85;;;6.90;;
75423;SDS011;64005;55.160;36.002;2023-04-01T16:14:12;15.98;;;6.78;;
75423;SDS011;64005;55.160;36.002;2023-04-01T16:16:53;15.90;;;6.45;;
75423;SDS011;64005;55.160;36.002;2023-04-01T16:19:37;13.43;;;6.15;;
75423;SDS011;64005;55.160;36.002;2023-04-01T16:22:18;14.40;;;6.43;;
75423;SDS011;64005;55.160;36.002;2023-04-01T16:24:51;15.27;;;6.22;;
75423;SDS011;64005;55.160;36.002;2023-04-01T16:27:25;17.38;;;6.45;;
75423;SDS011;64005;55.160;36.002;2023-04-01T16:30:01;19.90;;;6.97;;
75423;SDS011;64005;55.160;36.002;2023-04-01T16:33:04;15.70;;;6.63;;
75423;SDS011;64005;55.160;36.002;2023-04-01T16:35:44;13.10;;;5.65;;
75423;SDS011;64005;55.160;36.002;2023-04-01T16:38:24;15.43;;;6.65;;
75423;SDS011;64005;55.160;36.002;2023-04-01T16:41:07;16.48;;;6.80;;
75423;SDS011;64005;55.160;36.002;2023-04-01T16:44:14;17.20;;;6.55;;
75423;SDS011;64005;55.160;36.002;2023-04-01T16:46:55;14.77;;;6.20;;
75423;SDS011;64005;55.160;36.002;2023-04-01T16:49:30;16.35;;;6.60;;
75423;SDS011;64005;55.160;36.002;2023-04-01T16:52:12;14.65;;;6.75;;
75423;SDS011;64005;55.160;36.002;2023-04-01T16:54:43;14.80;;;6.72;;
75423;SDS011;64005;55.160;36.002;2023-04-01T16:57:23;17.30;;;6.50;;
75423;SDS011;64005;55.160;36.002;2023-04-01T16:59:58;13.32;;;6.10;;
75423;SDS011;64005;55.160;36.002;2023-04-01T17:02:35;12.38;;;5.45;;
75423;SDS011;64005;55.160;36.002;2023-04-01T17:05:08;18.95;;;7.22;;
75423;SDS011;64005;55.160;36.002;2023-04-01T17:07:42;17.92;;;6.75;;
75423;SDS011;64005;55.160;36.002;2023-04-01T17:10:27;15.35;;;6.78;;
75423;SDS011;64005;55.160;36.002;2023-04-01T17:13:16;15.20;;;5.38;;
75423;SDS011;64005;55.160;36.002;2023-04-01T17:15:59;16.45;;;6.28;;
75423;SDS011;64005;55.160;36.002;2023-04-01T17:18:38;14.23;;;6.10;;
75423;SDS011;64005;55.160;36.002;2023-04-01T17:23:47;16.80;;;6.70;;
75423;SDS011;64005;55.160;36.002;2023-04-01T17:26:22;17.42;;;6.70;;
75423;SDS011;64005;55.160;36.002;2023-04-01T17:28:58;14.23;;;6.90;;
75423;SDS011;64005;55.160;36.002;2023-04-01T17:31:35;15.25;;;6.28;;
75423;SDS011;64005;55.160;36.002;2023-04-01T17:34:17;17.20;;;6.88;;
75423;SDS011;64005;55.160;36.002;2023-04-01T17:37:15;17.02;;;6.72;;
75423;SDS011;64005;55.160;36.002;2023-04-01T17:40:00;17.25;;;7.25;;
75423;SDS011;64005;55.160;36.002;2023-04-01T17:42:52;18.85;;;6.78;;
75423;SDS011;64005;55.160;36.002;2023-04-01T17:45:28;16.67;;;7.30;;
75423;SDS011;64005;55.160;36.002;2023-04-01T17:48:06;16.27;;;7.50;;
75423;SDS011;64005;55.160;36.002;2023-04-01T17:50:48;14.50;;;6.88;;
75423;SDS011;64005;55.160;36.002;2023-04-01T17:53:33;18.92;;;7.35;;
75423;SDS011;64005;55.160;36.002;2023-04-01T17:56:11;17.05;;;7.32;;
75423;SDS011;64005;55.160;36.002;2023-04-01T17:58:50;16.48;;;7.47;;
75423;SDS011;64005;55.160;36.002;2023-04-01T18:01:30;16.08;;;6.80;;
75423;SDS011;64005;55.160;36.002;2023-04-01T18:04:29;20.23;;;7.65;;
75423;SDS011;64005;55.160;36.002;2023-04-01T18:07:12;19.38;;;8.20;;
75423;SDS011;64005;55.160;36.002;2023-04-01T18:10:00;27.52;;;8.98;;
75423;SDS011;64005;55.160;36.002;2023-04-01T18:12:42;16.67;;;7.25;;
75423;SDS011;64005;55.160;36.002;2023-04-01T18:15:22;18.38;;;8.25;;
75423;SDS011;64005;55.160;36.002;2023-04-01T18:18:02;21.45;;;8.23;;
75423;SDS011;64005;55.160;36.002;2023-04-01T18:20:43;18.15;;;7.72;;
75423;SDS011;64005;55.160;36.002;2023-04-01T18:23:24;18.77;;;7.60;;
75423;SDS011;64005;55.160;36.002;2023-04-01T18:26:03;15.05;;;7.22;;
75423;SDS011;64005;55.160;36.002;2023-04-01T18:28:36;17.15;;;7.47;;
75423;SDS011;64005;55.160;36.002;2023-04-01T18:31:09;17.15;;;7.15;;
75423;SDS011;64005;55.160;36.002;2023-04-01T18:33:44;21.58;;;8.10;;
75423;SDS011;64005;55.160;36.002;2023-04-01T18:36:18;19.55;;;8.70;;
75423;SDS011;64005;55.160;36.002;2023-04-01T18:38:52;20.13;;;8.15;;
75423;SDS011;64005;55.160;36.002;2023-04-01T18:41:28;20.35;;;7.55;;
75423;SDS011;64005;55.160;36.002;2023-04-01T18:44:11;23.60;;;8.68;;
75423;SDS011;64005;55.160;36.002;2023-04-01T18:46:54;27.08;;;9.90;;
75423;SDS011;64005;55.160;36.002;2023-04-01T18:49:30;23.05;;;8.80;;
75423;SDS011;64005;55.160;36.002;2023-04-01T18:52:09;25.30;;;9.35;;
75423;SDS011;64005;55.160;36.002;2023-04-01T18:54:44;18.30;;;7.82;;
75423;SDS011;64005;55.160;36.002;2023-04-01T18:57:18;19.58;;;8.60;;
75423;SDS011;64005;55.160;36.002;2023-04-01T18:59:48;14.60;;;7.15;;
75423;SDS011;64005;55.160;36.002;2023-04-01T19:02:24;15.27;;;7.43;;
75423;SDS011;64005;55.160;36.002;2023-04-01T19:05:00;20.23;;;7.20;;
75423;SDS011;64005;55.160;36.002;2023-04-01T19:07:42;19.90;;;8.57;;
75423;SDS011;64005;55.160;36.002;2023-04-01T19:10:14;17.52;;;7.57;;
75423;SDS011;64005;55.160;36.002;2023-04-01T19:12:48;18.70;;;8.35;;
75423;SDS011;64005;55.160;36.002;2023-04-01T19:15:29;16.58;;;7.15;;
75423;SDS011;64005;55.160;36.002;2023-04-01T19:20:58;16.65;;;6.95;;
75423;SDS011;64005;55.160;36.002;2023-04-01T19:23:44;19.08;;;7.72;;
75423;SDS011;64005;55.160;36.002;2023-04-01T19:26:37;19.45;;;8.02;;
75423;SDS011;64005;55.160;36.002;2023-04-01T19:29:12;17.33;;;7.05;;
75423;SDS011;64005;55.160;36.002;2023-04-01T19:31:52;18.02;;;7.30;;
75423;SDS011;64005;55.160;36.002;2023-04-01T19:34:31;19.00;;;8.13;;
75423;SDS011;64005;55.160;36.002;2023-04-01T19:37:11;19.75;;;7.32;;
75423;SDS011;64005;55.160;36.002;2023-04-01T19:39:51;17.63;;;6.80;;
75423;SDS011;64005;55.160;36.002;2023-04-01T19:42:30;19.63;;;7.70;;
75423;SDS011;64005;55.160;36.002;2023-04-01T19:50:25;14.70;;;6.95;;
75423;SDS011;64005;55.160;36.002;2023-04-01T19:53:03;14.88;;;6.72;;
75423;SDS011;64005;55.160;36.002;2023-04-01T19:55:42;15.90;;;7.10;;
75423;SDS011;64005;55.160;36.002;2023-04-01T19:58:15;21.63;;;7.45;;